createdAt,value
2023-11-01T00:00:31.632Z,7.3
2023-11-01T00:20:32.068Z,7.3
2023-11-01T00:40:33.715Z,7.2
2023-11-01T01:00:31.494Z,7
2023-11-01T01:20:32.744Z,7
2023-11-01T01:40:33.253Z,6.9
2023-11-01T02:00:34.586Z,7
2023-11-01T02:20:33.762Z,6.8
2023-11-01T02:40:32.957Z,6.6
2023-11-01T03:00:33.628Z,6.6
2023-11-01T03:20:33.030Z,6.5
2023-11-01T03:40:35.717Z,6.4
2023-11-01T04:00:36.348Z,6.2
2023-11-01T04:20:32.881Z,6.2
2023-11-01T04:40:33.419Z,6
2023-11-01T05:00:45.034Z,6
2023-11-01T05:20:33.958Z,6
2023-11-01T05:40:33.217Z,5.8
2023-11-01T06:00:31.429Z,5.6
2023-11-01T06:20:53.332Z,5.6
2023-11-01T06:40:54.167Z,5.6
2023-11-01T07:00:50.684Z,5.5
2023-11-01T07:20:52.207Z,5.7
2023-11-01T07:40:49.345Z,6.1
2023-11-01T08:00:49.452Z,6.4
2023-11-01T08:20:51.949Z,6.7
2023-11-01T08:40:48.596Z,7.1
2023-11-01T09:01:16.238Z,7.9
2023-11-01T09:20:53.230Z,8.5
2023-11-01T09:40:50.536Z,8.4
2023-11-01T10:00:52.236Z,8.9
2023-11-01T10:20:51.304Z,9.2
2023-11-01T10:40:50.093Z,9.6
2023-11-01T11:20:52.697Z,9.8
2023-11-01T11:40:50.818Z,9.7
2023-11-01T12:00:55.091Z,10.1
2023-11-01T12:20:56.380Z,10.4
2023-11-01T12:40:51.933Z,10.7
2023-11-01T13:00:52.028Z,10.8
2023-11-01T13:20:50.080Z,10.7
2023-11-01T13:40:51.455Z,10.9
2023-11-01T14:00:53.009Z,11.1
2023-11-01T14:20:52.783Z,10.9
2023-11-01T14:40:52.509Z,10.6
2023-11-01T15:00:54.934Z,10.7
2023-11-01T15:20:54.818Z,11
2023-11-01T15:40:51.783Z,10.9
2023-11-01T16:00:57.874Z,10.8
2023-11-01T16:20:34.569Z,10.7
2023-11-01T16:40:32.714Z,10.6
2023-11-01T17:20:32.815Z,10.5
2023-11-01T17:40:33.538Z,10.4
2023-11-01T18:00:32.089Z,10.2
2023-11-01T18:20:31.220Z,9.8
2023-11-01T18:40:39.414Z,9.5
2023-11-01T19:20:35.564Z,9
2023-11-01T19:40:33.916Z,8.6
2023-11-01T20:00:43.344Z,8.4
2023-11-01T20:20:33.607Z,8.3
2023-11-01T20:40:35.875Z,8.1
2023-11-01T21:00:33.646Z,7.9
2023-11-01T21:20:32.059Z,7.8
2023-11-01T21:40:31.471Z,7.6
2023-11-01T22:00:35.122Z,7.3
2023-11-01T22:20:33.575Z,7.4
2023-11-01T22:40:32.918Z,7
2023-11-01T23:00:47.676Z,7
2023-11-01T23:20:32.163Z,6.9
2023-11-01T23:40:31.438Z,7
